createdAt,value
2023-11-27T00:00:04.720Z,94.29
2023-11-27T00:02:35.172Z,94.07
2023-11-27T00:05:05.918Z,94.38
2023-11-27T00:07:34.196Z,94.33
2023-11-27T00:10:02.750Z,94.34
2023-11-27T00:12:32.266Z,94.42
2023-11-27T00:15:00.422Z,94.73
2023-11-27T00:17:29.016Z,94.35
2023-11-27T00:19:57.225Z,94.65
2023-11-27T00:22:25.345Z,94.59
2023-11-27T00:24:53.453Z,94.58
2023-11-27T00:27:22.499Z,94.93
2023-11-27T00:29:51.979Z,94.77
2023-11-27T00:32:21.520Z,94.64
2023-11-27T00:34:49.702Z,94.81
2023-11-27T00:37:18.243Z,94.79
2023-11-27T00:39:46.357Z,94.84
2023-11-27T00:42:14.893Z,94.79
2023-11-27T00:44:45.538Z,94.83
2023-11-27T00:47:15.181Z,94.96
2023-11-27T00:49:43.289Z,94.93
2023-11-27T00:52:11.386Z,94.70
2023-11-27T00:54:39.466Z,94.62
2023-11-27T00:57:08.298Z,94.80
2023-11-27T00:59:41.960Z,95.00
2023-11-27T01:02:10.645Z,94.95
2023-11-27T01:04:41.304Z,94.77
2023-11-27T01:07:10.538Z,95.14
2023-11-27T01:09:39.955Z,95.14
2023-11-27T01:12:08.375Z,94.93
2023-11-27T01:14:36.447Z,94.83
2023-11-27T01:17:04.572Z,94.97
2023-11-27T01:19:33.133Z,95.18
2023-11-27T01:22:02.651Z,95.27
2023-11-27T01:24:30.918Z,95.21
2023-11-27T01:26:58.994Z,95.55
2023-11-27T01:29:27.071Z,95.27
2023-11-27T01:31:55.589Z,95.15
2023-11-27T01:34:23.705Z,95.63
2023-11-27T01:36:51.805Z,95.49
2023-11-27T01:39:21.316Z,95.62
2023-11-27T01:41:49.394Z,95.42
2023-11-27T01:44:17.457Z,95.41
2023-11-27T01:46:49.089Z,95.67
2023-11-27T01:49:19.331Z,95.55
2023-11-27T01:51:51.367Z,95.94
2023-11-27T01:54:21.652Z,95.38
2023-11-27T01:56:50.916Z,95.65
2023-11-27T01:59:20.161Z,95.34
2023-11-27T02:01:48.832Z,95.47
2023-11-27T02:04:17.336Z,95.56
2023-11-27T02:06:45.515Z,95.48
2023-11-27T02:09:14.690Z,95.54
2023-11-27T02:11:50.326Z,96.04
2023-11-27T02:14:18.468Z,95.87
2023-11-27T02:16:47.462Z,95.90
2023-11-27T02:19:16.062Z,95.69
2023-11-27T02:21:44.873Z,95.89
2023-11-27T02:24:14.350Z,95.73
2023-11-27T02:26:42.430Z,95.55
2023-11-27T02:29:10.637Z,95.32
2023-11-27T02:31:39.515Z,95.83
2023-11-27T02:34:07.796Z,95.76
2023-11-27T02:36:39.768Z,95.79
2023-11-27T02:39:08.560Z,95.57
2023-11-27T02:41:39.090Z,95.78
2023-11-27T02:44:07.857Z,95.64
2023-11-27T02:46:36.858Z,95.86
2023-11-27T02:49:05.160Z,95.51
2023-11-27T02:51:33.559Z,95.57
2023-11-27T02:54:01.641Z,95.64
2023-11-27T02:56:29.680Z,95.62
2023-11-27T02:58:59.112Z,95.92
2023-11-27T03:01:28.258Z,95.87
2023-11-27T03:03:56.574Z,95.75
2023-11-27T03:06:24.729Z,95.99
2023-11-27T03:08:52.937Z,95.79
2023-11-27T03:11:21.002Z,95.97
2023-11-27T03:13:49.100Z,95.82
2023-11-27T03:16:18.634Z,96.03
2023-11-27T03:18:47.342Z,96.04
2023-11-27T03:21:22.239Z,95.88
2023-11-27T03:23:50.477Z,95.81
2023-11-27T03:26:19.550Z,95.83
2023-11-27T03:28:47.756Z,95.73
2023-11-27T03:31:16.015Z,95.59
2023-11-27T03:33:45.563Z,95.69
2023-11-27T03:36:14.137Z,95.74
2023-11-27T03:38:42.210Z,95.32
2023-11-27T03:41:18.824Z,95.38
2023-11-27T03:43:47.042Z,95.17
2023-11-27T03:46:15.227Z,95.20
2023-11-27T03:48:43.352Z,95.25
2023-11-27T03:51:12.854Z,95.20
2023-11-27T03:53:40.948Z,95.36
2023-11-27T03:56:09.880Z,94.91
2023-11-27T03:58:37.963Z,94.67
2023-11-27T04:01:06.546Z,94.92
2023-11-27T04:03:34.917Z,94.79
2023-11-27T04:06:05.741Z,94.73
2023-11-27T04:08:35.513Z,94.39
2023-11-27T04:11:03.922Z,94.18
2023-11-27T04:13:32.233Z,94.04
2023-11-27T04:16:00.752Z,94.01
2023-11-27T04:18:29.143Z,93.62
2023-11-27T04:20:57.194Z,93.83
2023-11-27T04:23:25.235Z,93.85
2023-11-27T04:25:54.878Z,93.72
2023-11-27T04:28:23.129Z,93.26
2023-11-27T04:30:51.370Z,93.23
2023-11-27T04:33:20.381Z,93.02
2023-11-27T04:35:49.587Z,92.89
2023-11-27T04:38:18.652Z,92.78
2023-11-27T04:40:46.852Z,92.35
2023-11-27T04:43:16.451Z,92.39
2023-11-27T04:45:44.741Z,92.52
2023-11-27T04:48:12.818Z,92.58
2023-11-27T04:50:40.885Z,92.73
2023-11-27T04:53:09.043Z,92.36
2023-11-27T04:55:37.127Z,92.27
2023-11-27T04:58:05.235Z,92.08
2023-11-27T05:00:34.750Z,91.83
2023-11-27T05:03:02.927Z,91.82
2023-11-27T05:05:31.018Z,91.45
2023-11-27T05:07:59.102Z,91.56
2023-11-27T05:10:29.364Z,91.35
2023-11-27T05:12:57.800Z,90.95
2023-11-27T05:15:25.892Z,91.12
2023-11-27T05:17:56.075Z,91.29
2023-11-27T05:20:24.301Z,90.86
2023-11-27T05:22:52.815Z,91.01
2023-11-27T05:25:20.995Z,90.95
2023-11-27T05:27:49.494Z,90.59
2023-11-27T05:30:18.175Z,90.74
2023-11-27T05:32:46.271Z,90.89
2023-11-27T05:35:15.801Z,90.83
2023-11-27T05:37:43.987Z,90.75
2023-11-27T05:40:13.207Z,90.75
2023-11-27T05:42:42.153Z,91.15
2023-11-27T05:45:12.475Z,90.69
2023-11-27T05:47:41.575Z,90.85
2023-11-27T05:50:13.012Z,91.23
2023-11-27T05:52:42.543Z,90.56
2023-11-27T05:55:11.267Z,90.90
2023-11-27T05:57:39.399Z,90.68
2023-11-27T06:00:08.908Z,91.13
2023-11-27T06:02:38.147Z,91.20
2023-11-27T06:05:07.150Z,90.73
2023-11-27T06:07:35.438Z,91.02
2023-11-27T06:10:05.412Z,90.43
2023-11-27T06:12:33.662Z,90.60
2023-11-27T06:15:01.735Z,90.67
2023-11-27T06:17:29.842Z,90.46
2023-11-27T06:19:58.000Z,91.32
2023-11-27T06:22:27.420Z,91.47
2023-11-27T06:24:57.908Z,91.54
2023-11-27T06:27:28.093Z,90.85
2023-11-27T06:29:56.314Z,90.89
2023-11-27T06:32:24.563Z,90.53
2023-11-27T06:34:53.425Z,91.09
2023-11-27T06:37:21.523Z,90.83
2023-11-27T06:39:49.760Z,91.19
2023-11-27T06:42:17.853Z,90.79
2023-11-27T06:44:47.328Z,90.43
2023-11-27T06:47:15.438Z,90.96
2023-11-27T06:49:45.162Z,90.88
2023-11-27T06:52:14.397Z,91.03
2023-11-27T06:54:42.490Z,91.04
2023-11-27T06:57:10.707Z,90.61
2023-11-27T06:59:45.064Z,90.79
2023-11-27T07:02:15.184Z,90.55
2023-11-27T07:04:43.397Z,91.12
2023-11-27T07:07:11.868Z,91.02
2023-11-27T07:09:39.973Z,90.76
2023-11-27T07:12:10.123Z,90.99
2023-11-27T07:14:38.493Z,90.78
2023-11-27T07:17:06.937Z,91.06
2023-11-27T07:19:36.573Z,91.05
2023-11-27T07:22:05.459Z,91.08
2023-11-27T07:24:33.610Z,91.04
2023-11-27T07:27:03.562Z,91.28
2023-11-27T07:29:31.649Z,90.98
2023-11-27T07:31:59.800Z,91.13
2023-11-27T07:34:28.793Z,91.39
2023-11-27T07:36:58.858Z,91.24
2023-11-27T07:39:27.271Z,91.61
2023-11-27T07:41:55.394Z,91.53
2023-11-27T07:44:26.395Z,91.95
2023-11-27T07:46:54.713Z,91.72
2023-11-27T07:49:23.198Z,91.79
2023-11-27T07:51:51.294Z,91.83
2023-11-27T07:54:21.752Z,91.76
2023-11-27T07:56:50.105Z,91.36
2023-11-27T07:59:18.240Z,91.92
2023-11-27T08:01:46.897Z,91.61
2023-11-27T08:04:15.238Z,91.71
2023-11-27T08:06:45.377Z,91.90
2023-11-27T08:09:13.531Z,91.63
2023-11-27T08:11:43.216Z,92.31
2023-11-27T08:14:11.851Z,92.26
2023-11-27T08:16:39.972Z,92.03
2023-11-27T08:19:08.100Z,91.79
2023-11-27T08:21:37.028Z,91.83
2023-11-27T08:24:07.351Z,91.80
2023-11-27T08:26:40.814Z,91.59
2023-11-27T08:29:11.943Z,91.93
2023-11-27T08:31:41.619Z,91.89
2023-11-27T08:34:09.867Z,92.13
2023-11-27T08:36:39.578Z,92.23
2023-11-27T08:39:11.398Z,93.17
2023-11-27T08:41:39.992Z,93.31
2023-11-27T08:44:09.921Z,92.60
2023-11-27T08:46:39.643Z,92.96
2023-11-27T08:49:07.764Z,92.97
2023-11-27T08:51:35.927Z,93.25
2023-11-27T08:54:04.095Z,92.75
2023-11-27T08:56:35.055Z,93.09
2023-11-27T08:59:03.467Z,91.52
2023-11-27T09:01:31.691Z,91.84
2023-11-27T09:04:01.658Z,91.71
2023-11-27T09:06:30.108Z,91.42
2023-11-27T09:08:58.279Z,89.55
2023-11-27T09:11:26.864Z,88.93
2023-11-27T09:13:55.162Z,88.85
2023-11-27T09:16:23.593Z,86.94
2023-11-27T09:18:51.696Z,87.15
2023-11-27T09:21:21.212Z,85.59
2023-11-27T09:23:49.495Z,85.03
2023-11-27T09:26:17.566Z,84.86
2023-11-27T09:28:48.832Z,84.19
2023-11-27T09:31:18.829Z,84.60
2023-11-27T09:33:47.054Z,85.21
2023-11-27T09:36:16.654Z,85.67
2023-11-27T09:38:46.233Z,86.12
2023-11-27T09:41:14.706Z,86.24
2023-11-27T09:43:42.868Z,85.84
2023-11-27T09:46:18.383Z,85.59
2023-11-27T09:48:48.598Z,85.06
2023-11-27T09:51:17.419Z,84.79
2023-11-27T09:53:52.064Z,84.54
2023-11-27T09:56:28.438Z,84.62
2023-11-27T09:59:00.933Z,84.70
2023-11-27T10:01:30.755Z,84.94
2023-11-27T10:04:01.367Z,84.82
2023-11-27T10:06:35.269Z,84.71
2023-11-27T10:09:09.218Z,84.66
2023-11-27T10:11:38.102Z,84.39
2023-11-27T10:14:29.890Z,84.24
2023-11-27T10:16:59.857Z,83.94
2023-11-27T10:19:28.467Z,84.45
2023-11-27T10:21:57.713Z,84.16
2023-11-27T10:24:27.385Z,84.13
2023-11-27T10:26:55.498Z,84.17
2023-11-27T10:29:27.781Z,83.62
2023-11-27T10:31:59.681Z,83.79
2023-11-27T10:34:28.605Z,83.45
2023-11-27T10:36:59.262Z,83.13
2023-11-27T10:39:33.829Z,83.39
2023-11-27T10:42:04.048Z,83.19
2023-11-27T10:44:36.276Z,82.58
2023-11-27T10:47:09.257Z,82.75
2023-11-27T10:49:40.225Z,82.66
2023-11-27T10:52:10.551Z,82.44
2023-11-27T10:54:42.161Z,82.11
2023-11-27T10:57:11.723Z,82.30
2023-11-27T10:59:43.482Z,81.98
2023-11-27T11:02:14.081Z,82.20
2023-11-27T11:04:52.918Z,81.91
2023-11-27T11:07:23.975Z,82.23
2023-11-27T11:09:56.743Z,82.00
2023-11-27T11:12:26.153Z,82.07
2023-11-27T11:14:55.234Z,82.11
2023-11-27T11:17:35.596Z,81.97
2023-11-27T11:20:16.196Z,81.76
2023-11-27T11:22:54.145Z,81.76
2023-11-27T11:25:30.995Z,81.82
2023-11-27T11:28:07.168Z,81.34
2023-11-27T11:30:36.976Z,81.41
2023-11-27T11:33:07.898Z,81.19
2023-11-27T11:35:37.911Z,81.52
2023-11-27T11:38:17.554Z,81.20
2023-11-27T11:40:49.862Z,81.24
2023-11-27T11:43:18.517Z,81.06
2023-11-27T11:45:47.598Z,80.65
2023-11-27T11:48:16.578Z,80.85
2023-11-27T11:50:44.760Z,80.76
2023-11-27T11:53:38.436Z,80.89
2023-11-27T11:56:20.795Z,81.09
2023-11-27T11:58:52.199Z,80.64
2023-11-27T12:01:21.295Z,81.46
2023-11-27T12:03:50.071Z,81.21
2023-11-27T12:06:18.311Z,80.73
2023-11-27T12:08:47.277Z,80.32
2023-11-27T12:11:17.108Z,79.69
2023-11-27T12:13:46.173Z,80.08
2023-11-27T12:16:15.409Z,80.43
2023-11-27T12:18:45.845Z,80.23
2023-11-27T12:21:16.496Z,79.83
2023-11-27T12:23:47.636Z,79.95
2023-11-27T12:26:24.116Z,79.64
2023-11-27T12:28:52.931Z,79.51
2023-11-27T12:31:22.624Z,79.21
2023-11-27T12:33:51.276Z,79.27
2023-11-27T12:36:22.665Z,78.95
2023-11-27T12:38:54.005Z,79.06
2023-11-27T12:41:34.331Z,79.04
2023-11-27T12:44:17.608Z,78.51
2023-11-27T12:46:51.502Z,78.61
2023-11-27T12:49:22.287Z,78.42
2023-11-27T12:51:53.407Z,78.27
2023-11-27T12:54:24.447Z,78.08
2023-11-27T12:57:00.455Z,78.59
2023-11-27T12:59:29.118Z,78.27
2023-11-27T13:01:59.627Z,78.56
2023-11-27T13:04:31.354Z,78.75
2023-11-27T13:07:00.628Z,79.13
2023-11-27T13:09:28.738Z,78.90
2023-11-27T13:11:58.248Z,79.35
2023-11-27T13:14:26.338Z,79.46
2023-11-27T13:16:54.952Z,79.57
2023-11-27T13:19:26.189Z,80.14
2023-11-27T13:21:56.829Z,80.01
2023-11-27T13:24:31.537Z,80.33
2023-11-27T13:27:08.829Z,80.35
2023-11-27T13:29:36.893Z,80.57
2023-11-27T13:32:05.185Z,80.67
2023-11-27T13:34:38.341Z,81.02
2023-11-27T13:37:10.049Z,81.32
2023-11-27T13:39:41.709Z,81.25
2023-11-27T13:42:11.239Z,81.80
2023-11-27T13:44:39.359Z,81.97
2023-11-27T13:47:10.769Z,81.87
2023-11-27T13:49:42.260Z,82.00
2023-11-27T13:52:17.454Z,82.41
2023-11-27T13:54:50.229Z,82.37
2023-11-27T13:57:28.937Z,82.69
2023-11-27T13:59:59.159Z,82.49
2023-11-27T14:02:29.491Z,82.44
2023-11-27T14:05:07.883Z,82.65
2023-11-27T14:07:42.267Z,82.14
2023-11-27T14:10:23.765Z,82.71
2023-11-27T14:13:02.122Z,82.54
2023-11-27T14:15:40.495Z,82.78
2023-11-27T14:18:38.990Z,83.11
2023-11-27T14:21:33.287Z,82.87
2023-11-27T14:24:05.505Z,82.72
2023-11-27T14:26:47.983Z,83.04
2023-11-27T14:29:22.886Z,83.43
2023-11-27T14:31:52.367Z,83.04
2023-11-27T14:34:26.721Z,83.13
2023-11-27T14:36:55.200Z,83.43
2023-11-27T14:39:27.494Z,83.87
2023-11-27T14:41:56.520Z,83.86
2023-11-27T14:44:27.221Z,83.80
2023-11-27T14:46:55.925Z,83.69
2023-11-27T14:49:26.663Z,83.67
2023-11-27T14:52:00.281Z,83.80
2023-11-27T14:54:28.931Z,83.99
2023-11-27T14:56:57.515Z,84.26
2023-11-27T14:59:27.203Z,84.03
2023-11-27T15:01:56.239Z,84.17
2023-11-27T15:04:25.135Z,84.68
2023-11-27T15:06:53.404Z,84.35
2023-11-27T15:09:24.028Z,84.51
2023-11-27T15:11:53.232Z,84.69
2023-11-27T15:14:22.001Z,84.87
2023-11-27T15:16:52.842Z,85.01
2023-11-27T15:19:22.037Z,85.29
2023-11-27T15:21:50.855Z,85.28
2023-11-27T15:24:19.143Z,85.27
2023-11-27T15:26:52.024Z,85.21
2023-11-27T15:29:20.466Z,85.55
2023-11-27T15:31:50.311Z,85.63
2023-11-27T15:34:19.985Z,85.82
2023-11-27T15:36:50.833Z,85.84
2023-11-27T15:39:24.453Z,85.72
2023-11-27T15:41:53.943Z,86.02
2023-11-27T15:44:22.057Z,86.26
2023-11-27T15:46:50.936Z,86.13
2023-11-27T15:49:20.498Z,86.20
2023-11-27T15:51:48.629Z,86.31
2023-11-27T15:54:17.739Z,86.27
2023-11-27T15:56:46.388Z,86.07
2023-11-27T15:59:15.503Z,86.22
2023-11-27T16:01:43.784Z,86.30
2023-11-27T16:04:13.643Z,86.57
2023-11-27T16:06:43.526Z,86.66
2023-11-27T16:09:11.896Z,86.67
2023-11-27T16:11:41.633Z,86.47
2023-11-27T16:14:14.396Z,86.71
2023-11-27T16:16:46.373Z,86.69
2023-11-27T16:19:15.876Z,86.97
2023-11-27T16:21:46.221Z,86.95
2023-11-27T16:24:15.264Z,86.95
2023-11-27T16:26:43.949Z,87.05
2023-11-27T16:29:12.340Z,87.08
2023-11-27T16:31:40.731Z,86.79
2023-11-27T16:34:08.967Z,87.15
2023-11-27T16:36:37.020Z,87.07
2023-11-27T16:39:09.218Z,87.09
2023-11-27T16:41:37.284Z,87.26
2023-11-27T16:44:05.617Z,87.43
2023-11-27T16:46:35.022Z,87.27
2023-11-27T16:49:04.067Z,87.53
2023-11-27T16:51:33.166Z,87.54
2023-11-27T16:54:01.452Z,87.49
2023-11-27T16:56:31.979Z,87.52
2023-11-27T16:59:00.072Z,87.59
2023-11-27T17:01:28.463Z,87.27
2023-11-27T17:04:01.151Z,87.69
2023-11-27T17:06:29.780Z,87.59
2023-11-27T17:08:58.518Z,87.81
2023-11-27T17:11:26.740Z,87.87
2023-11-27T17:13:56.836Z,87.71
2023-11-27T17:16:25.480Z,87.80
2023-11-27T17:18:53.727Z,88.13
2023-11-27T17:21:21.826Z,88.07
2023-11-27T17:23:50.015Z,88.01
2023-11-27T17:26:19.445Z,88.12
2023-11-27T17:28:48.840Z,88.12
2023-11-27T17:31:18.424Z,88.06
2023-11-27T17:33:49.199Z,87.95
2023-11-27T17:36:17.297Z,87.89
2023-11-27T17:38:45.541Z,88.13
2023-11-27T17:41:14.441Z,88.02
2023-11-27T17:43:43.387Z,88.20
2023-11-27T17:46:12.936Z,88.18
2023-11-27T17:48:45.170Z,88.12
2023-11-27T17:51:14.527Z,88.12
2023-11-27T17:53:42.624Z,88.23
2023-11-27T17:56:11.568Z,88.26
2023-11-27T17:58:40.313Z,88.24
2023-11-27T18:01:09.933Z,88.34
2023-11-27T18:03:40.753Z,88.19
2023-11-27T18:06:11.418Z,88.36
2023-11-27T18:08:39.456Z,88.56
2023-11-27T18:11:11.699Z,88.29
2023-11-27T18:13:42.109Z,88.40
2023-11-27T18:16:12.385Z,88.44
2023-11-27T18:18:40.796Z,88.61
2023-11-27T18:21:11.284Z,88.54
2023-11-27T18:23:39.363Z,88.82
2023-11-27T18:26:10.596Z,89.11
2023-11-27T18:28:39.441Z,89.28
2023-11-27T18:31:08.104Z,89.65
2023-11-27T18:33:36.170Z,89.48
2023-11-27T18:36:04.574Z,89.54
2023-11-27T18:38:35.505Z,89.44
2023-11-27T18:41:03.627Z,89.56
2023-11-27T18:43:32.087Z,89.38
2023-11-27T18:46:00.322Z,89.13
2023-11-27T18:48:28.726Z,89.46
2023-11-27T18:50:56.867Z,89.79
2023-11-27T18:53:25.753Z,89.50
2023-11-27T18:55:55.355Z,89.57
2023-11-27T18:58:23.573Z,89.49
2023-11-27T19:00:53.393Z,89.31
2023-11-27T19:03:23.657Z,89.21
2023-11-27T19:05:51.934Z,89.17
2023-11-27T19:08:20.030Z,89.10
2023-11-27T19:10:48.143Z,88.91
2023-11-27T19:13:17.691Z,88.73
2023-11-27T19:15:52.575Z,88.77
2023-11-27T19:18:20.739Z,88.65
2023-11-27T19:20:48.783Z,88.65
2023-11-27T19:23:16.867Z,88.71
2023-11-27T19:25:44.999Z,88.61
2023-11-27T19:28:13.206Z,88.83
2023-11-27T19:30:44.738Z,88.93
2023-11-27T19:33:12.987Z,88.95
2023-11-27T19:35:41.143Z,88.84
2023-11-27T19:38:16.712Z,88.96
2023-11-27T19:40:45.132Z,89.20
2023-11-27T19:43:13.543Z,89.21
2023-11-27T19:45:43.807Z,89.40
2023-11-27T19:48:12.301Z,89.64
2023-11-27T19:50:40.644Z,89.47
2023-11-27T19:53:10.217Z,89.23
2023-11-27T19:55:38.646Z,89.11
2023-11-27T19:58:07.378Z,89.25
2023-11-27T20:00:35.457Z,89.14
2023-11-27T20:03:06.270Z,89.37
2023-11-27T20:05:36.650Z,89.46
2023-11-27T20:08:04.972Z,89.34
2023-11-27T20:10:33.242Z,89.70
2023-11-27T20:13:01.377Z,89.56
2023-11-27T20:15:29.525Z,89.55
2023-11-27T20:17:57.623Z,89.74
2023-11-27T20:20:28.176Z,89.52
2023-11-27T20:22:56.257Z,89.32
2023-11-27T20:25:25.394Z,89.67
2023-11-27T20:27:53.511Z,89.62
2023-11-27T20:30:24.559Z,89.52
2023-11-27T20:32:53.912Z,89.70
2023-11-27T20:35:23.029Z,89.48
2023-11-27T20:37:52.590Z,89.59
2023-11-27T20:40:20.757Z,89.64
2023-11-27T20:42:50.918Z,89.70
2023-11-27T20:45:19.127Z,89.80
2023-11-27T20:47:47.867Z,89.82
2023-11-27T20:50:16.235Z,89.88
2023-11-27T20:52:44.401Z,89.88
2023-11-27T20:55:14.133Z,89.75
2023-11-27T20:57:42.737Z,89.43
2023-11-27T21:00:12.637Z,89.63
2023-11-27T21:02:44.211Z,89.68
2023-11-27T21:05:13.356Z,89.76
2023-11-27T21:07:42.332Z,89.76
2023-11-27T21:10:12.682Z,89.80
2023-11-27T21:12:43.473Z,89.90
2023-11-27T21:15:12.703Z,90.01
2023-11-27T21:17:41.384Z,90.03
2023-11-27T21:20:13.649Z,89.95
2023-11-27T21:22:43.628Z,89.94
2023-11-27T21:25:14.699Z,89.84
2023-11-27T21:27:44.341Z,89.93
2023-11-27T21:30:17.228Z,89.93
2023-11-27T21:32:47.693Z,90.03
2023-11-27T21:35:17.732Z,89.91
2023-11-27T21:37:46.066Z,89.78
2023-11-27T21:40:14.292Z,89.86
2023-11-27T21:42:47.030Z,89.89
2023-11-27T21:45:15.384Z,89.97
2023-11-27T21:47:43.573Z,89.92
2023-11-27T21:50:12.175Z,90.07
2023-11-27T21:52:40.917Z,89.95
2023-11-27T21:55:10.290Z,90.05
2023-11-27T21:57:41.256Z,89.93
2023-11-27T22:00:12.172Z,90.12
2023-11-27T22:02:42.313Z,90.07
2023-11-27T22:05:13.730Z,89.89
2023-11-27T22:07:42.828Z,90.09
2023-11-27T22:10:11.997Z,89.96
2023-11-27T22:12:41.807Z,89.89
2023-11-27T22:15:14.586Z,90.12
2023-11-27T22:17:42.774Z,89.96
2023-11-27T22:20:12.769Z,89.82
2023-11-27T22:22:42.567Z,90.18
2023-11-27T22:25:10.728Z,90.06
2023-11-27T22:27:38.915Z,90.19
2023-11-27T22:30:08.529Z,90.12
2023-11-27T22:32:38.350Z,89.82
2023-11-27T22:35:07.308Z,89.74
2023-11-27T22:37:37.501Z,89.64
2023-11-27T22:40:08.954Z,89.68
2023-11-27T22:42:38.133Z,89.31
2023-11-27T22:45:07.356Z,89.45
2023-11-27T22:47:35.523Z,89.78
2023-11-27T22:50:05.564Z,90.02
2023-11-27T22:52:34.297Z,90.08
2023-11-27T22:55:03.636Z,90.23
2023-11-27T22:57:31.800Z,90.55
2023-11-27T23:00:00.056Z,90.34
2023-11-27T23:02:30.104Z,90.34
2023-11-27T23:04:58.302Z,90.20
2023-11-27T23:07:27.835Z,90.36
2023-11-27T23:09:58.284Z,90.13
2023-11-27T23:12:26.842Z,90.15
2023-11-27T23:14:55.507Z,90.04
2023-11-27T23:17:23.766Z,90.23
2023-11-27T23:19:53.099Z,90.37
2023-11-27T23:22:21.331Z,90.40
2023-11-27T23:24:50.985Z,90.61
2023-11-27T23:27:19.090Z,90.49
2023-11-27T23:29:47.175Z,90.57
2023-11-27T23:32:15.425Z,90.61
2023-11-27T23:34:43.884Z,90.61
2023-11-27T23:37:12.344Z,90.88
2023-11-27T23:39:40.581Z,90.72
2023-11-27T23:42:11.175Z,90.89
2023-11-27T23:44:40.296Z,91.00
2023-11-27T23:47:08.781Z,90.70
2023-11-27T23:49:39.149Z,90.91
2023-11-27T23:52:09.631Z,90.90
2023-11-27T23:54:37.693Z,90.99
2023-11-27T23:57:08.780Z,90.76
2023-11-27T23:59:39.249Z,91.09
